createdAt,value
2023-03-06T00:00:40.908Z,10.12
2023-03-06T00:03:20.599Z,10.16
2023-03-06T00:05:51.021Z,10.19
2023-03-06T00:08:21.362Z,10.21
2023-03-06T00:10:51.709Z,10.21
2023-03-06T00:13:22.323Z,10.20
2023-03-06T00:15:52.667Z,10.19
2023-03-06T00:18:23.241Z,10.19
2023-03-06T00:20:58.791Z,10.16
2023-03-06T00:23:29.457Z,10.13
2023-03-06T00:26:01.428Z,10.11
2023-03-06T00:28:32.388Z,10.09
2023-03-06T00:31:03.311Z,10.07
2023-03-06T00:33:33.998Z,10.06
2023-03-06T00:36:07.910Z,10.06
2023-03-06T00:38:38.302Z,10.08
2023-03-06T00:41:13.526Z,10.12
2023-03-06T00:43:43.986Z,10.15
2023-03-06T00:46:15.031Z,10.17
2023-03-06T00:48:46.659Z,10.19
2023-03-06T00:51:19.578Z,10.19
2023-03-06T00:53:50.036Z,10.19
2023-03-06T00:56:20.433Z,10.18
2023-03-06T00:58:51.747Z,10.16
2023-03-06T01:01:22.829Z,10.14
2023-03-06T01:03:53.508Z,10.11
2023-03-06T01:06:24.187Z,10.05
2023-03-06T01:08:54.685Z,10.02
2023-03-06T01:11:25.840Z,9.98
2023-03-06T01:13:56.092Z,9.96
2023-03-06T01:16:26.979Z,9.97
2023-03-06T01:18:57.543Z,10.00
2023-03-06T01:21:29.061Z,10.04
2023-03-06T01:23:59.367Z,10.06
2023-03-06T01:26:32.048Z,10.08
2023-03-06T01:29:02.778Z,10.08
2023-03-06T01:31:33.483Z,10.07
2023-03-06T01:34:04.948Z,10.06
2023-03-06T01:36:35.213Z,10.01
2023-03-06T01:39:06.929Z,9.97
2023-03-06T01:41:38.086Z,9.95
2023-03-06T01:44:09.798Z,9.92
2023-03-06T01:46:42.446Z,9.90
2023-03-06T01:49:18.136Z,9.87
2023-03-06T01:51:51.507Z,9.88
2023-03-06T01:54:24.951Z,9.88
2023-03-06T01:57:00.873Z,9.89
2023-03-06T01:59:31.508Z,9.92
2023-03-06T02:02:03.999Z,9.94
2023-03-06T02:04:35.321Z,9.98
2023-03-06T02:07:07.679Z,10.00
2023-03-06T02:09:39.520Z,9.99
2023-03-06T02:12:12.462Z,9.98
2023-03-06T02:14:43.099Z,9.98
2023-03-06T02:17:15.686Z,9.97
2023-03-06T02:19:53.506Z,9.94
2023-03-06T02:22:27.101Z,9.92
2023-03-06T02:25:03.099Z,9.87
2023-03-06T02:27:34.032Z,9.85
2023-03-06T02:30:10.122Z,9.83
2023-03-06T02:32:40.699Z,9.81
2023-03-06T02:35:18.335Z,9.81
2023-03-06T02:37:49.436Z,9.82
2023-03-06T02:40:20.874Z,9.84
2023-03-06T02:42:55.935Z,9.84
2023-03-06T02:45:31.153Z,9.83
2023-03-06T02:48:01.258Z,9.80
2023-03-06T02:50:31.684Z,9.78
2023-03-06T02:53:02.563Z,9.77
2023-03-06T02:55:33.007Z,9.76
2023-03-06T02:58:04.205Z,9.75
2023-03-06T03:00:34.767Z,9.73
2023-03-06T03:03:06.328Z,9.69
2023-03-06T03:05:36.898Z,9.66
2023-03-06T03:08:07.647Z,9.65
2023-03-06T03:10:38.649Z,9.65
2023-03-06T03:13:10.222Z,9.67
2023-03-06T03:15:41.029Z,9.70
2023-03-06T03:18:12.291Z,9.72
2023-03-06T03:20:44.870Z,9.74
2023-03-06T03:23:16.058Z,9.76
2023-03-06T03:25:47.578Z,9.77
2023-03-06T03:28:18.808Z,9.75
2023-03-06T03:30:49.204Z,9.74
2023-03-06T03:33:19.583Z,9.73
2023-03-06T03:35:58.292Z,9.69
2023-03-06T03:38:29.293Z,9.67
2023-03-06T03:41:01.288Z,9.64
2023-03-06T03:43:32.996Z,9.62
2023-03-06T03:46:04.438Z,9.59
2023-03-06T03:48:35.154Z,9.57
2023-03-06T03:51:08.976Z,9.54
2023-03-06T03:53:40.653Z,9.56
2023-03-06T03:56:12.234Z,9.57
2023-03-06T03:58:43.556Z,9.60
2023-03-06T04:01:13.801Z,9.65
2023-03-06T04:03:44.680Z,9.69
2023-03-06T04:06:16.053Z,9.72
2023-03-06T04:08:46.444Z,9.74
2023-03-06T04:11:18.571Z,9.75
2023-03-06T04:13:49.107Z,9.77
2023-03-06T04:16:20.649Z,9.77
2023-03-06T04:18:50.855Z,9.77
2023-03-06T04:21:21.130Z,9.78
2023-03-06T04:23:51.668Z,9.78
2023-03-06T04:26:22.367Z,9.81
2023-03-06T04:28:52.608Z,9.86
2023-03-06T04:31:23.374Z,9.92
2023-03-06T04:33:53.717Z,9.98
2023-03-06T04:36:27.965Z,10.07
2023-03-06T04:38:58.493Z,10.16
2023-03-06T04:41:29.067Z,10.26
2023-03-06T04:43:59.818Z,10.37
2023-03-06T04:46:30.135Z,10.43
2023-03-06T04:49:00.595Z,10.43
2023-03-06T04:51:30.890Z,10.46
2023-03-06T04:54:01.279Z,10.50
2023-03-06T04:56:31.500Z,10.57
2023-03-06T04:59:03.648Z,10.65
2023-03-06T05:01:34.678Z,10.67
2023-03-06T05:04:05.750Z,10.70
2023-03-06T05:06:37.225Z,10.76
2023-03-06T05:09:08.187Z,10.85
2023-03-06T05:11:38.408Z,10.88
2023-03-06T05:14:08.726Z,10.86
2023-03-06T05:16:39.093Z,10.87
2023-03-06T05:19:09.593Z,10.91
2023-03-06T05:21:39.979Z,10.99
2023-03-06T05:24:11.276Z,11.05
2023-03-06T05:26:41.721Z,11.07
2023-03-06T05:29:12.139Z,11.13
2023-03-06T05:31:42.450Z,11.21
2023-03-06T05:34:14.827Z,11.34
2023-03-06T05:36:45.209Z,11.46
2023-03-06T05:39:15.624Z,11.57
2023-03-06T05:41:50.754Z,11.69
2023-03-06T05:44:23.612Z,11.82
2023-03-06T05:46:55.107Z,11.98
2023-03-06T05:49:25.406Z,12.17
2023-03-06T05:51:56.087Z,12.34
2023-03-06T05:54:26.642Z,12.47
2023-03-06T05:56:57.732Z,12.63
2023-03-06T05:59:28.784Z,12.77
2023-03-06T06:01:59.307Z,12.90
2023-03-06T06:04:29.878Z,13.07
2023-03-06T06:07:01.470Z,13.17
2023-03-06T06:09:31.843Z,13.20
2023-03-06T06:12:06.021Z,13.29
2023-03-06T06:14:36.775Z,13.39
2023-03-06T06:17:08.290Z,13.47
2023-03-06T06:19:38.875Z,13.55
2023-03-06T06:22:09.059Z,13.63
2023-03-06T06:24:39.427Z,13.68
2023-03-06T06:27:09.731Z,13.77
2023-03-06T06:29:40.088Z,13.86
2023-03-06T06:32:10.508Z,13.95
2023-03-06T06:34:41.271Z,13.98
2023-03-06T06:37:11.539Z,14.00
2023-03-06T06:39:41.820Z,13.99
2023-03-06T06:42:30.481Z,13.95
2023-03-06T06:45:03.054Z,13.98
2023-03-06T06:47:33.918Z,14.03
2023-03-06T06:50:04.580Z,14.07
2023-03-06T06:52:35.178Z,14.14
2023-03-06T06:55:06.881Z,14.26
2023-03-06T06:57:37.820Z,14.39
2023-03-06T07:00:12.058Z,14.42
2023-03-06T07:02:42.480Z,14.43
2023-03-06T07:05:13.381Z,14.57
2023-03-06T07:07:44.666Z,14.89
2023-03-06T07:10:18.910Z,15.09
2023-03-06T07:12:50.173Z,15.12
2023-03-06T07:15:20.964Z,15.14
2023-03-06T07:17:51.264Z,15.09
2023-03-06T07:20:22.992Z,14.93
2023-03-06T07:22:53.425Z,14.78
2023-03-06T07:25:23.878Z,14.74
2023-03-06T07:27:55.368Z,14.83
2023-03-06T07:30:25.781Z,14.84
2023-03-06T07:32:57.820Z,14.87
2023-03-06T07:35:28.719Z,14.93
2023-03-06T07:37:59.338Z,14.91
2023-03-06T07:40:30.517Z,14.76
2023-03-06T07:43:13.222Z,14.71
2023-03-06T07:45:49.317Z,14.64
2023-03-06T07:48:19.427Z,14.60
2023-03-06T07:50:57.562Z,14.62
2023-03-06T07:53:28.345Z,14.62
2023-03-06T07:55:58.677Z,14.51
2023-03-06T07:58:29.026Z,14.39
2023-03-06T08:01:03.273Z,14.35
2023-03-06T08:03:33.628Z,14.32
2023-03-06T08:06:12.647Z,14.34
2023-03-06T08:08:45.105Z,14.30
2023-03-06T08:11:17.509Z,14.32
2023-03-06T08:13:49.471Z,14.41
2023-03-06T08:16:21.440Z,14.53
2023-03-06T08:18:52.245Z,14.62
2023-03-06T08:21:23.893Z,14.66
2023-03-06T08:23:54.266Z,14.74
2023-03-06T08:26:26.777Z,14.77
2023-03-06T08:28:58.250Z,14.85
2023-03-06T08:31:30.396Z,14.97
2023-03-06T08:34:02.105Z,15.06
2023-03-06T08:36:32.545Z,15.15
2023-03-06T08:39:04.318Z,15.21
2023-03-06T08:41:35.097Z,15.23
2023-03-06T08:44:06.213Z,15.25
2023-03-06T08:46:37.237Z,15.27
2023-03-06T08:49:08.805Z,15.19
2023-03-06T08:51:39.042Z,14.97
2023-03-06T08:54:10.485Z,14.75
2023-03-06T08:56:41.140Z,14.66
2023-03-06T08:59:13.153Z,14.60
2023-03-06T09:01:44.937Z,14.59
2023-03-06T09:04:15.312Z,14.65
2023-03-06T09:06:46.508Z,14.64
2023-03-06T09:09:16.964Z,14.63
2023-03-06T09:11:47.646Z,14.70
2023-03-06T09:14:18.071Z,14.86
2023-03-06T09:16:48.513Z,15.00
2023-03-06T09:19:18.969Z,15.05
2023-03-06T09:21:49.410Z,15.05
2023-03-06T09:24:20.134Z,15.06
2023-03-06T09:26:51.699Z,15.14
2023-03-06T09:29:22.154Z,15.18
2023-03-06T09:31:52.396Z,15.28
2023-03-06T09:34:23.071Z,15.41
2023-03-06T09:36:57.253Z,15.52
2023-03-06T09:39:28.477Z,15.65
2023-03-06T09:41:59.333Z,15.78
2023-03-06T09:44:31.050Z,15.90
2023-03-06T09:47:24.925Z,16.06
2023-03-06T09:50:11.929Z,16.26
2023-03-06T09:52:50.300Z,16.43
2023-03-06T09:55:22.933Z,16.54
2023-03-06T09:57:56.479Z,16.57
2023-03-06T10:00:33.582Z,16.55
2023-03-06T10:03:15.098Z,16.45
2023-03-06T10:05:47.749Z,16.25
2023-03-06T10:08:24.493Z,16.10
2023-03-06T10:10:58.532Z,15.94
2023-03-06T10:13:31.676Z,15.80
2023-03-06T10:16:08.237Z,15.80
2023-03-06T10:18:38.845Z,15.86
2023-03-06T10:21:23.784Z,16.00
2023-03-06T10:23:55.927Z,16.13
2023-03-06T10:26:28.515Z,16.20
2023-03-06T10:29:16.636Z,16.29
2023-03-06T10:31:51.038Z,16.39
2023-03-06T10:34:23.805Z,16.41
2023-03-06T10:36:54.262Z,16.25
2023-03-06T10:39:24.824Z,16.16
2023-03-06T10:41:57.914Z,16.10
2023-03-06T10:44:28.692Z,16.01
2023-03-06T10:46:59.418Z,15.91
2023-03-06T10:49:35.750Z,15.71
2023-03-06T10:52:20.140Z,15.65
2023-03-06T10:54:50.831Z,15.48
2023-03-06T10:57:26.011Z,15.25
2023-03-06T10:59:58.861Z,15.02
2023-03-06T11:02:36.245Z,14.83
2023-03-06T11:05:11.180Z,14.68
2023-03-06T11:07:56.406Z,14.55
2023-03-06T11:10:28.260Z,14.44
2023-03-06T11:13:04.715Z,14.30
2023-03-06T11:15:41.132Z,14.19
2023-03-06T11:18:30.817Z,14.01
2023-03-06T11:21:01.936Z,13.89
2023-03-06T11:23:38.861Z,13.88
2023-03-06T11:26:32.351Z,13.96
2023-03-06T11:29:25.676Z,14.06
2023-03-06T11:32:00.605Z,14.14
2023-03-06T11:34:41.171Z,14.17
2023-03-06T11:37:17.236Z,14.15
2023-03-06T11:39:50.992Z,14.08
2023-03-06T11:42:24.875Z,14.04
2023-03-06T11:45:04.136Z,13.99
2023-03-06T11:47:37.085Z,13.90
2023-03-06T11:50:17.675Z,13.76
2023-03-06T11:52:52.554Z,13.68
2023-03-06T11:55:39.974Z,13.60
2023-03-06T11:58:41.093Z,13.48
2023-03-06T12:01:16.648Z,13.38
2023-03-06T12:04:19.276Z,13.33
2023-03-06T12:06:57.640Z,13.25
2023-03-06T12:09:38.893Z,13.20
2023-03-06T12:12:22.916Z,13.12
2023-03-06T12:15:04.707Z,13.07
2023-03-06T12:17:47.096Z,13.03
2023-03-06T12:20:33.326Z,13.04
2023-03-06T12:23:15.332Z,13.07
2023-03-06T12:25:51.540Z,13.08
2023-03-06T12:28:34.780Z,13.10
2023-03-06T12:31:26.177Z,13.14
2023-03-06T12:34:05.546Z,13.16
2023-03-06T12:36:42.206Z,13.18
2023-03-06T12:39:18.824Z,13.20
2023-03-06T12:42:06.784Z,13.23
2023-03-06T12:44:58.815Z,13.26
2023-03-06T12:47:30.397Z,13.26
2023-03-06T12:50:08.195Z,13.25
2023-03-06T12:52:39.057Z,13.22
2023-03-06T12:55:17.161Z,13.20
2023-03-06T12:57:48.626Z,13.16
2023-03-06T13:00:58.752Z,13.09
2023-03-06T13:03:44.633Z,12.98
2023-03-06T13:06:27.451Z,12.91
2023-03-06T13:09:18.058Z,12.88
2023-03-06T13:12:03.939Z,12.82
2023-03-06T13:14:54.985Z,12.77
2023-03-06T13:17:34.039Z,12.69
2023-03-06T13:20:26.927Z,12.66
2023-03-06T13:22:58.676Z,12.64
2023-03-06T13:25:49.727Z,12.63
2023-03-06T13:28:45.843Z,12.63
2023-03-06T13:31:27.700Z,12.65
2023-03-06T13:34:02.627Z,12.69
2023-03-06T13:36:33.827Z,12.72
2023-03-06T13:39:09.339Z,12.73
2023-03-06T13:41:57.241Z,12.69
2023-03-06T13:44:50.799Z,12.58
2023-03-06T13:48:06.504Z,12.48
2023-03-06T13:50:39.456Z,12.45
2023-03-06T13:53:37.607Z,12.46
2023-03-06T13:56:13.076Z,12.51
2023-03-06T13:58:58.120Z,12.52
2023-03-06T14:01:43.394Z,12.51
2023-03-06T14:04:38.024Z,12.48
2023-03-06T14:07:23.484Z,12.42
2023-03-06T14:10:02.091Z,12.40
2023-03-06T14:12:35.757Z,12.39
2023-03-06T14:15:13.382Z,12.39
2023-03-06T14:17:53.680Z,12.44
2023-03-06T14:20:28.350Z,12.53
2023-03-06T14:23:16.389Z,12.58
2023-03-06T14:25:47.989Z,12.63
2023-03-06T14:28:26.523Z,12.64
2023-03-06T14:30:59.195Z,12.60
2023-03-06T14:33:35.645Z,12.57
2023-03-06T14:36:09.014Z,12.57
2023-03-06T14:38:46.213Z,12.58
2023-03-06T14:41:24.772Z,12.56
2023-03-06T14:44:10.190Z,12.54
2023-03-06T14:46:41.044Z,12.53
2023-03-06T14:49:13.071Z,12.52
2023-03-06T14:51:45.043Z,12.49
2023-03-06T14:54:21.203Z,12.46
2023-03-06T14:56:55.554Z,12.43
2023-03-06T14:59:28.533Z,12.37
2023-03-06T15:02:01.584Z,12.34
2023-03-06T15:04:36.651Z,12.32
2023-03-06T15:07:10.269Z,12.31
2023-03-06T15:09:42.408Z,12.28
2023-03-06T15:12:35.978Z,12.25
2023-03-06T15:15:27.509Z,12.21
2023-03-06T15:17:57.832Z,12.22
2023-03-06T15:20:43.666Z,12.22
2023-03-06T15:23:23.156Z,12.20
2023-03-06T15:25:59.079Z,12.18
2023-03-06T15:28:38.277Z,12.14
2023-03-06T15:31:21.316Z,12.13
2023-03-06T15:34:23.873Z,12.11
2023-03-06T15:36:55.838Z,12.10
2023-03-06T15:39:31.660Z,12.11
2023-03-06T15:42:05.036Z,12.13
2023-03-06T15:44:36.478Z,12.14
2023-03-06T15:47:09.539Z,12.13
2023-03-06T15:49:40.596Z,12.11
2023-03-06T15:52:12.332Z,12.09
2023-03-06T15:54:45.293Z,12.08
2023-03-06T15:57:21.292Z,12.06
2023-03-06T15:59:52.561Z,12.06
2023-03-06T16:02:24.722Z,12.08
2023-03-06T16:04:57.250Z,12.09
2023-03-06T16:07:28.396Z,12.06
2023-03-06T16:09:59.238Z,12.05
2023-03-06T16:12:31.320Z,12.02
2023-03-06T16:15:06.663Z,12.00
2023-03-06T16:17:37.070Z,11.99
2023-03-06T16:20:10.954Z,11.95
2023-03-06T16:22:41.448Z,11.89
2023-03-06T16:25:12.922Z,11.84
2023-03-06T16:27:55.479Z,11.82
2023-03-06T16:30:27.314Z,11.80
2023-03-06T16:32:58.747Z,11.76
2023-03-06T16:35:31.752Z,11.68
2023-03-06T16:38:02.472Z,11.65
2023-03-06T16:40:40.974Z,11.59
2023-03-06T16:43:13.222Z,11.52
2023-03-06T16:45:45.214Z,11.49
2023-03-06T16:48:19.026Z,11.44
2023-03-06T16:50:50.147Z,11.44
2023-03-06T16:53:21.500Z,11.45
2023-03-06T16:55:53.780Z,11.46
2023-03-06T16:58:28.152Z,11.46
2023-03-06T17:01:03.021Z,11.45
2023-03-06T17:03:34.039Z,11.45
2023-03-06T17:06:05.180Z,11.48
2023-03-06T17:08:36.595Z,11.51
2023-03-06T17:11:09.365Z,11.56
2023-03-06T17:13:40.252Z,11.58
2023-03-06T17:16:18.028Z,11.56
2023-03-06T17:18:52.228Z,11.57
2023-03-06T17:21:26.479Z,11.59
2023-03-06T17:24:01.843Z,11.60
2023-03-06T17:26:33.159Z,11.59
2023-03-06T17:29:05.939Z,11.57
2023-03-06T17:31:39.089Z,11.56
2023-03-06T17:34:12.158Z,11.54
2023-03-06T17:36:43.784Z,11.52
2023-03-06T17:39:14.248Z,11.51
2023-03-06T17:41:46.428Z,11.49
2023-03-06T17:44:17.088Z,11.40
2023-03-06T17:46:47.564Z,11.26
2023-03-06T17:49:20.870Z,11.13
2023-03-06T17:51:51.503Z,11.04
2023-03-06T17:54:22.077Z,10.97
2023-03-06T17:56:52.587Z,10.94
2023-03-06T17:59:23.488Z,10.89
2023-03-06T18:01:57.914Z,10.82
2023-03-06T18:04:28.779Z,10.74
2023-03-06T18:07:01.348Z,10.67
2023-03-06T18:09:32.287Z,10.63
2023-03-06T18:12:04.034Z,10.64
2023-03-06T18:14:37.410Z,10.67
2023-03-06T18:17:10.510Z,10.69
2023-03-06T18:19:41.529Z,10.71
2023-03-06T18:22:12.324Z,10.75
2023-03-06T18:24:42.945Z,10.78
2023-03-06T18:27:13.413Z,10.77
2023-03-06T18:29:44.020Z,10.73
2023-03-06T18:32:14.669Z,10.71
2023-03-06T18:34:44.938Z,10.68
2023-03-06T18:37:16.350Z,10.62
2023-03-06T18:39:56.292Z,10.58
2023-03-06T18:42:26.738Z,10.57
2023-03-06T18:44:58.332Z,10.55
2023-03-06T18:47:31.454Z,10.51
2023-03-06T18:50:08.523Z,10.47
2023-03-06T18:52:41.886Z,10.42
2023-03-06T18:55:13.261Z,10.37
2023-03-06T18:57:43.537Z,10.29
2023-03-06T19:00:15.942Z,10.20
2023-03-06T19:02:47.039Z,10.15
2023-03-06T19:05:18.564Z,10.11
2023-03-06T19:07:49.015Z,10.06
2023-03-06T19:10:20.073Z,10.03
2023-03-06T19:12:50.560Z,10.05
2023-03-06T19:15:21.513Z,10.03
2023-03-06T19:17:51.903Z,9.98
2023-03-06T19:20:22.541Z,9.93
2023-03-06T19:22:53.551Z,9.87
2023-03-06T19:25:24.118Z,9.82
2023-03-06T19:27:55.338Z,9.78
2023-03-06T19:30:26.032Z,9.74
2023-03-06T19:32:56.798Z,9.68
2023-03-06T19:35:28.370Z,9.64
2023-03-06T19:37:59.109Z,9.59
2023-03-06T19:40:31.302Z,9.55
2023-03-06T19:43:02.186Z,9.52
2023-03-06T19:45:32.615Z,9.49
2023-03-06T19:48:05.510Z,9.44
2023-03-06T19:50:36.182Z,9.37
2023-03-06T19:53:07.570Z,9.30
2023-03-06T19:55:37.934Z,9.26
2023-03-06T19:58:08.344Z,9.22
2023-03-06T20:00:38.793Z,9.18
2023-03-06T20:03:09.136Z,9.15
2023-03-06T20:05:48.584Z,9.13
2023-03-06T20:08:19.269Z,9.10
2023-03-06T20:10:49.730Z,9.07
2023-03-06T20:13:20.059Z,9.03
2023-03-06T20:15:50.552Z,8.99
2023-03-06T20:18:20.974Z,8.94
2023-03-06T20:20:59.870Z,8.93
2023-03-06T20:23:32.781Z,8.91
2023-03-06T20:26:09.194Z,8.90
2023-03-06T20:28:42.153Z,8.90
2023-03-06T20:31:14.096Z,8.90
2023-03-06T20:33:44.459Z,8.89
2023-03-06T20:36:16.341Z,8.88
2023-03-06T20:38:47.258Z,8.86
2023-03-06T20:41:19.059Z,8.88
2023-03-06T20:43:49.885Z,8.90
2023-03-06T20:46:22.115Z,8.87
2023-03-06T20:49:06.732Z,8.83
2023-03-06T20:51:49.143Z,8.79
2023-03-06T20:54:23.998Z,8.75
2023-03-06T20:56:55.729Z,8.73
2023-03-06T20:59:37.209Z,8.71
2023-03-06T21:02:07.575Z,8.67
2023-03-06T21:04:48.321Z,8.65
2023-03-06T21:07:19.651Z,8.63
2023-03-06T21:09:51.580Z,8.62
2023-03-06T21:12:22.011Z,8.61
2023-03-06T21:14:53.619Z,8.62
2023-03-06T21:20:18.114Z,8.67
2023-03-06T21:22:52.049Z,8.67
2023-03-06T21:25:22.329Z,8.64
2023-03-06T21:27:52.505Z,8.60
2023-03-06T21:30:22.953Z,8.58
2023-03-06T21:32:53.598Z,8.56
2023-03-06T21:35:24.376Z,8.51
2023-03-06T21:37:54.860Z,8.45
2023-03-06T21:40:25.013Z,8.39
2023-03-06T21:42:55.419Z,8.35
2023-03-06T21:45:29.734Z,8.30
2023-03-06T21:48:01.151Z,8.26
2023-03-06T21:50:31.619Z,8.21
2023-03-06T21:53:01.803Z,8.17
2023-03-06T21:55:32.122Z,8.13
2023-03-06T21:58:02.416Z,8.10
2023-03-06T22:00:35.978Z,8.06
2023-03-06T22:03:07.021Z,8.01
2023-03-06T22:05:37.295Z,7.95
2023-03-06T22:08:07.664Z,7.90
2023-03-06T22:10:39.893Z,7.87
2023-03-06T22:13:10.366Z,7.87
2023-03-06T22:15:40.556Z,7.87
2023-03-06T22:18:15.534Z,7.86
2023-03-06T22:20:45.938Z,7.85
2023-03-06T22:23:16.951Z,7.84
2023-03-06T22:25:47.243Z,7.87
2023-03-06T22:28:18.828Z,7.88
2023-03-06T22:30:49.012Z,7.90
2023-03-06T22:33:19.281Z,7.90
2023-03-06T22:35:49.889Z,7.90
2023-03-06T22:38:20.240Z,7.91
2023-03-06T22:40:50.823Z,7.90
2023-03-06T22:43:21.222Z,7.90
2023-03-06T22:45:52.472Z,7.89
2023-03-06T22:48:23.612Z,7.86
2023-03-06T22:50:54.885Z,7.85
2023-03-06T22:53:25.235Z,7.84
2023-03-06T22:55:57.512Z,7.84
2023-03-06T22:58:33.857Z,7.81
2023-03-06T23:01:11.668Z,7.80
2023-03-06T23:03:43.146Z,7.80
2023-03-06T23:06:16.020Z,7.79
2023-03-06T23:08:48.974Z,7.81
2023-03-06T23:11:19.911Z,7.83
2023-03-06T23:13:51.124Z,7.83
2023-03-06T23:16:21.203Z,7.85
2023-03-06T23:18:52.743Z,7.85
2023-03-06T23:21:24.538Z,7.84
2023-03-06T23:23:56.182Z,7.80
2023-03-06T23:26:30.727Z,7.80
2023-03-06T23:29:01.104Z,7.80
2023-03-06T23:31:32.349Z,7.79
2023-03-06T23:34:03.632Z,7.80
2023-03-06T23:36:33.932Z,7.80
2023-03-06T23:39:04.207Z,7.81
2023-03-06T23:41:34.909Z,7.81
2023-03-06T23:44:06.109Z,7.81
2023-03-06T23:46:36.197Z,7.80
2023-03-06T23:49:07.755Z,7.78
2023-03-06T23:51:39.416Z,7.74
2023-03-06T23:54:11.760Z,7.73
2023-03-06T23:56:42.082Z,7.71
2023-03-06T23:59:13.084Z,7.71
